Time;durP1;ratioP1;P1;durP2;ratioP2;P2;SDS_P1;SDS_P2;PMS_P1;PMS_P2;Temp;Humidity;BMP_temperature;BMP_pressure;BME280_temperature;BME280_humidity;BME280_pressure;Samples;Min_cycle;Max_cycle;Signal;HPM_P1;HPM_P2
2021/06/26 00:00:56;;;;;;;;;;;13.90;99.90;;;;;;5054846;28;19947;-69
2021/06/26 00:03:25;;;;;;;;;;;13.90;99.90;;;;;;5054840;28;20016;-68
2021/06/26 00:05:53;;;;;;;;;;;14.30;99.30;;;;;;5054287;28;20003;-70
2021/06/26 00:08:20;;;;;;;;;;;14.20;98.70;;;;;;5054912;28;19912;-69
2021/06/26 00:10:47;;;;;;;;;;;14.20;99.30;;;;;;5054868;28;19961;-67
2021/06/26 00:13:17;;;;;;;;;;;14.30;99.70;;;;;;5054617;28;19959;-68
2021/06/26 00:15:45;;;;;;;;;;;14.30;99.20;;;;;;5054604;28;19913;-69
2021/06/26 00:18:11;;;;;;;;;;;14.40;98.30;;;;;;5054962;28;20015;-68
2021/06/26 00:20:39;;;;;;;;;;;14.30;98.20;;;;;;5071316;28;19909;-68
2021/06/26 00:23:06;;;;;;;;;;;14.30;98.50;;;;;;5075174;28;19909;-69
2021/06/26 00:25:33;;;;;;;;;;;14.30;98.20;;;;;;5075145;28;20323;-67
2021/06/26 00:28:00;;;;;;;;;;;14.40;97.60;;;;;;5075286;28;19915;-70
2021/06/26 00:30:27;;;;;;;;;;;14.40;97.60;;;;;;5075213;28;19924;-69
2021/06/26 00:32:54;;;;;;;;;;;14.40;97.40;;;;;;5075446;28;19915;-70
2021/06/26 00:35:20;;;;;;;;;;;14.50;98.70;;;;;;5073880;28;19909;-70
2021/06/26 00:37:47;;;;;;;;;;;14.60;96.90;;;;;;5074820;28;19916;-69
2021/06/26 00:40:14;;;;;;;;;;;14.50;96.70;;;;;;5074933;28;19931;-69
2021/06/26 00:42:42;;;;;;;;;;;14.60;96.50;;;;;;5074923;28;19916;-70
2021/06/26 00:45:10;;;;;;;;;;;14.60;96.90;;;;;;5073771;28;20046;-70
2021/06/26 00:47:37;;;;;;;;;;;14.70;96.40;;;;;;5074589;28;19908;-71
2021/06/26 00:50:05;;;;;;;;;;;14.70;96.70;;;;;;5073598;28;19909;-69
2021/06/26 00:52:31;;;;;;;;;;;14.70;96.80;;;;;;5074836;28;19912;-70
2021/06/26 00:55:07;;;;;;;;;;;14.80;97.50;;;;;;5074612;28;19908;-71
2021/06/26 00:57:34;;;;;;;;;;;14.90;96.40;;;;;;5074429;28;20007;-68
2021/06/26 01:00:03;;;;;;;;;;;14.90;97.10;;;;;;5074879;28;20359;-71
2021/06/26 01:02:30;;;;;;;;;;;14.90;97.00;;;;;;5075662;28;19961;-69
2021/06/26 01:04:56;;;;;;;;;;;15.10;96.40;;;;;;5075913;28;20015;-68
2021/06/26 01:07:23;;;;;;;;;;;15.40;96.00;;;;;;5079280;28;20295;-70
2021/06/26 01:09:50;;;;;;;;;;;16.10;95.60;;;;;;5075510;28;19966;-70
2021/06/26 01:12:17;;;;;;;;;;;16.30;94.50;;;;;;5078486;28;19909;-70
2021/06/26 01:14:43;;;;;;;;;;;16.20;94.30;;;;;;5081685;28;19928;-70
2021/06/26 01:17:10;;;;;;;;;;;16.40;93.30;;;;;;5081766;28;19908;-69
2021/06/26 01:19:36;;;;;;;;;;;16.60;93.10;;;;;;5077139;28;20290;-69
2021/06/26 01:22:06;;;;;;;;;;;16.50;92.50;;;;;;5077582;28;19908;-70
2021/06/26 01:24:34;;;;;;;;;;;16.50;92.70;;;;;;5082317;28;19970;-68
2021/06/26 01:27:01;;;;;;;;;;;16.40;92.50;;;;;;5077320;28;20255;-71
2021/06/26 01:29:29;;;;;;;;;;;16.20;93.10;;;;;;5074058;28;19927;-69
2021/06/26 01:31:56;;;;;;;;;;;16.20;93.90;;;;;;5074138;28;19909;-69
2021/06/26 01:34:23;;;;;;;;;;;15.90;93.20;;;;;;5074034;28;19909;-67
2021/06/26 01:36:50;;;;;;;;;;;15.90;93.60;;;;;;5074300;28;20274;-66
2021/06/26 01:39:16;;;;;;;;;;;15.90;93.80;;;;;;5074073;28;20357;-66
2021/06/26 01:41:43;;;;;;;;;;;15.80;93.60;;;;;;5073655;28;20001;-67
2021/06/26 01:44:10;;;;;;;;;;;15.80;93.40;;;;;;5073778;28;20386;-68
2021/06/26 01:46:38;;;;;;;;;;;15.80;93.60;;;;;;5074185;28;19995;-71
2021/06/26 01:49:12;;;;;;;;;;;15.70;93.20;;;;;;5073957;28;19909;-68
2021/06/26 01:51:39;;;;;;;;;;;15.70;93.90;;;;;;5073776;28;19913;-67
2021/06/26 01:54:10;;;;;;;;;;;15.80;94.00;;;;;;5073670;28;19920;-70
2021/06/26 01:56:37;;;;;;;;;;;15.80;94.30;;;;;;5072393;28;19920;-71
2021/06/26 01:59:04;;;;;;;;;;;15.90;93.50;;;;;;5073464;28;19943;-67
2021/06/26 02:01:32;;;;;;;;;;;15.90;93.30;;;;;;5073429;28;19909;-66
2021/06/26 02:03:59;;;;;;;;;;;15.80;93.00;;;;;;5073443;28;20311;-67
2021/06/26 02:06:25;;;;;;;;;;;15.80;93.30;;;;;;5073067;28;19916;-68
2021/06/26 02:08:52;;;;;;;;;;;15.90;93.20;;;;;;5073501;28;19908;-68
2021/06/26 02:11:19;;;;;;;;;;;15.90;92.70;;;;;;5073434;28;19985;-68
2021/06/26 02:13:45;;;;;;;;;;;15.90;93.10;;;;;;5073172;28;20511;-68
2021/06/26 02:16:12;;;;;;;;;;;15.90;93.30;;;;;;5073304;28;19963;-66
2021/06/26 02:18:39;;;;;;;;;;;15.90;92.30;;;;;;5072041;28;19959;-67
2021/06/26 02:21:06;;;;;;;;;;;15.90;92.20;;;;;;5073355;28;19990;-69
2021/06/26 02:23:39;;;;;;;;;;;15.90;92.50;;;;;;5071685;28;19908;-70
2021/06/26 02:26:06;;;;;;;;;;;15.90;91.90;;;;;;5073422;28;19935;-70
2021/06/26 02:28:33;;;;;;;;;;;15.80;92.30;;;;;;5073247;28;19999;-69
2021/06/26 02:31:00;;;;;;;;;;;15.90;91.50;;;;;;5073117;28;19909;-70
2021/06/26 02:33:26;;;;;;;;;;;15.90;91.50;;;;;;5073224;28;19908;-70
2021/06/26 02:35:53;;;;;;;;;;;15.90;91.20;;;;;;5072756;28;19908;-69
2021/06/26 02:38:20;;;;;;;;;;;15.90;91.70;;;;;;5073140;28;20421;-69
2021/06/26 02:40:46;;;;;;;;;;;16.00;91.40;;;;;;5073019;28;19999;-69
2021/06/26 02:43:13;;;;;;;;;;;16.00;91.80;;;;;;5072834;28;19923;-69
2021/06/26 02:45:40;;;;;;;;;;;16.00;91.70;;;;;;5072625;28;19915;-69
2021/06/26 02:48:07;;;;;;;;;;;16.00;92.30;;;;;;5073008;28;19908;-68
2021/06/26 02:50:33;;;;;;;;;;;16.00;92.00;;;;;;5072826;28;19909;-67
2021/06/26 02:53:00;;;;;;;;;;;16.00;91.50;;;;;;5073021;28;20393;-68
2021/06/26 02:55:27;;;;;;;;;;;16.00;92.00;;;;;;5073036;28;19913;-67
2021/06/26 02:57:53;;;;;;;;;;;16.00;91.70;;;;;;5072573;28;19920;-68
2021/06/26 03:00:20;;;;;;;;;;;16.10;90.90;;;;;;5072767;28;19912;-67
2021/06/26 03:02:47;;;;;;;;;;;16.10;91.10;;;;;;5073184;28;19908;-70
2021/06/26 03:05:14;;;;;;;;;;;16.10;90.90;;;;;;5072795;28;19977;-68
2021/06/26 03:07:48;;;;;;;;;;;16.10;91.30;;;;;;5072625;28;19931;-69
2021/06/26 03:10:14;;;;;;;;;;;16.10;91.80;;;;;;5071714;28;19992;-67
2021/06/26 03:12:41;;;;;;;;;;;16.30;91.40;;;;;;5072739;28;20321;-66
2021/06/26 03:15:08;;;;;;;;;;;16.20;90.90;;;;;;5072492;28;19927;-67
2021/06/26 03:17:34;;;;;;;;;;;16.20;91.30;;;;;;5072558;28;19923;-68
2021/06/26 03:20:01;;;;;;;;;;;16.30;91.60;;;;;;5076079;28;19944;-66
2021/06/26 03:22:28;;;;;;;;;;;16.20;91.00;;;;;;5076739;28;19908;-67
2021/06/26 03:24:54;;;;;;;;;;;16.20;91.40;;;;;;5076682;28;20324;-69
2021/06/26 03:27:21;;;;;;;;;;;16.20;91.80;;;;;;5076900;28;20355;-66
2021/06/26 03:29:48;;;;;;;;;;;16.20;90.90;;;;;;5076008;28;19912;-69
2021/06/26 03:32:14;;;;;;;;;;;16.20;91.00;;;;;;5076562;28;20055;-68
2021/06/26 03:34:41;;;;;;;;;;;16.20;91.20;;;;;;5076337;28;19908;-70
2021/06/26 03:37:07;;;;;;;;;;;16.20;90.90;;;;;;5076414;28;19915;-70
2021/06/26 03:39:34;;;;;;;;;;;16.30;90.30;;;;;;5076054;28;19917;-70
2021/06/26 03:42:01;;;;;;;;;;;16.20;90.50;;;;;;5076003;28;20359;-67
2021/06/26 03:44:28;;;;;;;;;;;16.20;90.30;;;;;;5076184;28;20391;-70
2021/06/26 03:47:00;;;;;;;;;;;16.20;90.20;;;;;;5076016;28;19947;-70
2021/06/26 03:49:29;;;;;;;;;;;16.20;90.50;;;;;;5076223;28;19908;-70
2021/06/26 03:51:56;;;;;;;;;;;16.10;90.80;;;;;;5076033;28;19916;-70
2021/06/26 03:54:23;;;;;;;;;;;16.10;90.70;;;;;;5075899;28;19916;-70
2021/06/26 03:56:50;;;;;;;;;;;16.10;91.50;;;;;;5076226;28;19995;-70
2021/06/26 03:59:16;;;;;;;;;;;16.10;90.00;;;;;;5075539;28;20011;-68
2021/06/26 04:01:43;;;;;;;;;;;16.10;90.60;;;;;;5075669;28;20347;-66
2021/06/26 04:04:10;;;;;;;;;;;16.10;90.80;;;;;;5074011;28;19912;-70
2021/06/26 04:06:36;;;;;;;;;;;16.20;90.00;;;;;;5056471;28;20352;-69
2021/06/26 04:09:04;;;;;;;;;;;16.20;89.80;;;;;;5055789;28;19916;-67
2021/06/26 04:11:30;;;;;;;;;;;16.20;89.70;;;;;;5055495;28;19970;-67
2021/06/26 04:13:57;;;;;;;;;;;16.30;89.50;;;;;;5054852;28;19928;-66
2021/06/26 04:16:24;;;;;;;;;;;16.40;89.00;;;;;;5055435;28;20417;-66
2021/06/26 04:18:50;;;;;;;;;;;16.50;87.00;;;;;;5054845;28;19950;-66
2021/06/26 04:21:17;;;;;;;;;;;16.50;87.80;;;;;;5055556;28;19908;-68
2021/06/26 04:23:44;;;;;;;;;;;16.50;89.20;;;;;;5055060;28;19909;-68
2021/06/26 04:26:10;;;;;;;;;;;16.60;88.10;;;;;;5055359;28;20279;-68
2021/06/26 04:28:37;;;;;;;;;;;16.50;87.00;;;;;;5055131;28;19920;-67
2021/06/26 04:31:04;;;;;;;;;;;16.60;89.10;;;;;;5054928;28;20283;-68
2021/06/26 04:33:30;;;;;;;;;;;16.50;86.90;;;;;;5054741;28;19909;-66
2021/06/26 04:35:57;;;;;;;;;;;16.50;87.70;;;;;;5055517;28;20375;-67
2021/06/26 04:38:25;;;;;;;;;;;16.50;87.70;;;;;;5056375;28;19928;-67
2021/06/26 04:40:52;;;;;;;;;;;16.60;87.80;;;;;;5056087;28;20007;-67
2021/06/26 04:43:20;;;;;;;;;;;16.60;86.80;;;;;;5054966;28;20398;-70
2021/06/26 04:45:47;;;;;;;;;;;16.60;87.90;;;;;;5053848;28;20259;-69
2021/06/26 04:48:24;;;;;;;;;;;16.60;90.50;;;;;;5054445;28;20004;-69
2021/06/26 04:50:51;;;;;;;;;;;16.60;87.30;;;;;;5053994;28;20386;-68
2021/06/26 04:53:18;;;;;;;;;;;16.50;88.00;;;;;;5054937;28;20318;-69
2021/06/26 04:55:51;;;;;;;;;;;16.60;88.70;;;;;;5054061;28;19962;-69
2021/06/26 04:58:22;;;;;;;;;;;16.60;86.30;;;;;;5054684;28;20389;-67
2021/06/26 05:00:52;;;;;;;;;;;16.60;87.00;;;;;;5055003;28;19916;-69
2021/06/26 05:03:22;;;;;;;;;;;16.60;88.50;;;;;;5054695;28;19962;-69
2021/06/26 05:05:50;;;;;;;;;;;16.50;89.10;;;;;;5054434;28;19909;-70
2021/06/26 05:08:17;;;;;;;;;;;16.60;87.90;;;;;;5054611;28;19916;-69
2021/06/26 05:10:43;;;;;;;;;;;16.50;87.30;;;;;;5054591;28;19909;-69
2021/06/26 05:13:10;;;;;;;;;;;16.60;87.80;;;;;;5053868;28;19913;-69
2021/06/26 05:15:37;;;;;;;;;;;16.60;89.20;;;;;;5054227;28;19920;-69
2021/06/26 05:18:03;;;;;;;;;;;16.60;87.60;;;;;;5054413;28;19916;-69
2021/06/26 05:20:30;;;;;;;;;;;16.50;88.30;;;;;;5054361;28;19916;-67
2021/06/26 05:22:58;;;;;;;;;;;16.50;87.80;;;;;;5054348;28;19923;-71
2021/06/26 05:25:25;;;;;;;;;;;16.50;89.40;;;;;;5054228;28;19927;-69
2021/06/26 05:27:51;;;;;;;;;;;16.50;89.00;;;;;;5052653;28;20251;-70
2021/06/26 05:30:18;;;;;;;;;;;16.50;88.90;;;;;;5054238;28;19913;-70
2021/06/26 05:32:45;;;;;;;;;;;16.40;89.00;;;;;;5054195;28;19959;-70
2021/06/26 05:35:11;;;;;;;;;;;16.40;89.50;;;;;;5053974;28;19909;-69
2021/06/26 05:37:43;;;;;;;;;;;16.50;88.90;;;;;;5052444;28;19913;-69
2021/06/26 05:40:10;;;;;;;;;;;16.50;87.50;;;;;;5053858;28;19943;-69
2021/06/26 05:42:36;;;;;;;;;;;16.50;88.40;;;;;;5052989;28;19913;-70
2021/06/26 05:45:06;;;;;;;;;;;16.50;88.30;;;;;;5054064;28;19968;-69
2021/06/26 05:47:34;;;;;;;;;;;16.40;88.50;;;;;;5053674;28;19908;-70
2021/06/26 05:50:01;;;;;;;;;;;16.30;88.70;;;;;;5054001;28;19958;-69
2021/06/26 05:52:29;;;;;;;;;;;16.20;90.10;;;;;;5054059;28;20393;-70
2021/06/26 05:54:55;;;;;;;;;;;16.10;90.00;;;;;;5053873;28;20356;-71
2021/06/26 05:57:23;;;;;;;;;;;16.10;90.10;;;;;;5053478;28;20031;-68
2021/06/26 05:59:53;;;;;;;;;;;16.10;90.40;;;;;;5053592;28;19923;-68
2021/06/26 06:02:20;;;;;;;;;;;16.00;89.50;;;;;;5054222;28;19912;-71
2021/06/26 06:04:46;;;;;;;;;;;16.00;88.80;;;;;;5054225;28;20374;-68
2021/06/26 06:07:14;;;;;;;;;;;16.00;90.00;;;;;;5053943;28;19909;-70
2021/06/26 06:09:41;;;;;;;;;;;15.90;90.20;;;;;;5054251;28;19909;-69
2021/06/26 06:12:08;;;;;;;;;;;15.90;90.20;;;;;;5057690;28;19916;-69
2021/06/26 06:14:34;;;;;;;;;;;15.90;90.70;;;;;;5065853;28;20425;-69
2021/06/26 06:17:01;;;;;;;;;;;15.90;90.20;;;;;;5066263;28;20374;-69
2021/06/26 06:19:28;;;;;;;;;;;15.80;90.60;;;;;;5062776;28;19917;-69
2021/06/26 06:21:55;;;;;;;;;;;15.80;90.50;;;;;;5053796;28;19912;-68
2021/06/26 06:24:21;;;;;;;;;;;15.70;90.20;;;;;;5053502;28;19909;-70
2021/06/26 06:26:51;;;;;;;;;;;15.70;90.80;;;;;;5053173;28;19977;-67
2021/06/26 06:29:17;;;;;;;;;;;15.70;90.40;;;;;;5053135;28;19955;-70
2021/06/26 06:31:44;;;;;;;;;;;15.60;90.80;;;;;;5051978;28;20275;-69
2021/06/26 06:34:11;;;;;;;;;;;15.50;91.20;;;;;;5053417;28;20464;-70
2021/06/26 06:36:37;;;;;;;;;;;15.50;91.40;;;;;;5053326;28;19948;-68
2021/06/26 06:39:04;;;;;;;;;;;15.40;91.80;;;;;;5053242;28;20311;-70
2021/06/26 06:41:31;;;;;;;;;;;15.40;92.00;;;;;;5053020;28;19967;-70
2021/06/26 06:43:57;;;;;;;;;;;15.40;91.80;;;;;;5052964;28;19909;-70
2021/06/26 06:46:25;;;;;;;;;;;15.40;92.40;;;;;;5053144;28;19954;-71
2021/06/26 06:48:52;;;;;;;;;;;15.30;91.90;;;;;;5050781;28;19913;-71
2021/06/26 06:51:19;;;;;;;;;;;15.40;92.00;;;;;;5053047;28;20113;-68
2021/06/26 06:53:45;;;;;;;;;;;15.30;92.00;;;;;;5055876;28;19943;-69
2021/06/26 06:56:12;;;;;;;;;;;15.30;91.50;;;;;;5057448;28;19909;-69
2021/06/26 06:58:39;;;;;;;;;;;15.30;91.60;;;;;;5056813;28;20383;-66
2021/06/26 07:01:06;;;;;;;;;;;15.30;91.40;;;;;;5057103;28;19909;-65
2021/06/26 07:03:33;;;;;;;;;;;15.30;91.70;;;;;;5056129;28;19947;-65
2021/06/26 07:05:59;;;;;;;;;;;15.30;92.40;;;;;;5056866;28;20381;-66
2021/06/26 07:08:26;;;;;;;;;;;15.20;92.90;;;;;;5056977;28;19909;-66
2021/06/26 07:10:53;;;;;;;;;;;15.10;93.30;;;;;;5056840;28;20306;-66
2021/06/26 07:13:20;;;;;;;;;;;15.10;93.50;;;;;;5056398;28;19932;-66
2021/06/26 07:15:46;;;;;;;;;;;15.00;93.70;;;;;;5056717;28;19916;-66
2021/06/26 07:18:13;;;;;;;;;;;15.00;94.00;;;;;;5056403;28;20032;-66
2021/06/26 07:20:40;;;;;;;;;;;14.90;94.20;;;;;;5056414;28;20347;-67
2021/06/26 07:23:07;;;;;;;;;;;14.90;94.70;;;;;;5056728;28;19909;-67
2021/06/26 07:25:34;;;;;;;;;;;14.80;94.80;;;;;;5056490;28;19940;-66
2021/06/26 07:28:00;;;;;;;;;;;14.80;95.00;;;;;;5056427;28;19909;-69
2021/06/26 07:30:27;;;;;;;;;;;14.70;94.90;;;;;;5056336;28;19909;-69
2021/06/26 07:32:54;;;;;;;;;;;14.70;95.40;;;;;;5056174;28;20047;-68
2021/06/26 07:35:20;;;;;;;;;;;14.60;95.20;;;;;;5056230;28;19916;-68
2021/06/26 07:37:47;;;;;;;;;;;14.60;96.10;;;;;;5055949;28;20282;-67
2021/06/26 07:40:14;;;;;;;;;;;14.60;95.50;;;;;;5055701;28;19916;-68
2021/06/26 07:42:41;;;;;;;;;;;14.50;95.60;;;;;;5054532;28;19959;-67
2021/06/26 07:45:08;;;;;;;;;;;14.50;95.90;;;;;;5056133;28;19913;-69
2021/06/26 07:47:35;;;;;;;;;;;14.50;96.20;;;;;;5055706;28;19909;-70
2021/06/26 07:50:03;;;;;;;;;;;14.40;96.40;;;;;;5056044;28;19908;-70
2021/06/26 07:52:29;;;;;;;;;;;14.40;96.50;;;;;;5055995;28;19939;-70
2021/06/26 07:54:56;;;;;;;;;;;14.30;96.70;;;;;;5055230;28;19909;-69
2021/06/26 07:57:23;;;;;;;;;;;14.30;96.80;;;;;;5055794;28;19915;-69
2021/06/26 07:59:49;;;;;;;;;;;14.30;95.90;;;;;;5055719;28;19920;-68
2021/06/26 08:02:16;;;;;;;;;;;14.30;96.60;;;;;;5055971;28;20351;-70
2021/06/26 08:04:42;;;;;;;;;;;14.30;97.10;;;;;;5055253;28;19912;-70
2021/06/26 08:07:09;;;;;;;;;;;14.20;96.50;;;;;;5055782;28;19935;-70
2021/06/26 08:09:36;;;;;;;;;;;14.30;96.40;;;;;;5055124;28;19909;-71
2021/06/26 08:12:03;;;;;;;;;;;14.20;97.70;;;;;;5055477;28;19909;-70
2021/06/26 08:14:29;;;;;;;;;;;14.20;97.60;;;;;;5055571;28;19925;-72
2021/06/26 08:16:56;;;;;;;;;;;14.30;98.20;;;;;;5055697;28;20036;-70
2021/06/26 08:19:22;;;;;;;;;;;14.30;97.70;;;;;;5055315;28;19967;-70
2021/06/26 08:21:49;;;;;;;;;;;14.20;97.20;;;;;;5054997;28;19913;-70
2021/06/26 08:24:16;;;;;;;;;;;14.20;97.40;;;;;;5055167;28;20007;-69
2021/06/26 08:26:42;;;;;;;;;;;14.10;97.60;;;;;;5054926;28;20352;-70
2021/06/26 08:29:09;;;;;;;;;;;14.10;96.90;;;;;;5055451;28;19979;-70
2021/06/26 08:31:36;;;;;;;;;;;14.10;97.10;;;;;;5055080;28;19909;-70
2021/06/26 08:34:02;;;;;;;;;;;14.00;97.10;;;;;;5055209;28;19978;-70
2021/06/26 08:36:29;;;;;;;;;;;14.00;97.20;;;;;;5055149;28;19912;-68
2021/06/26 08:38:56;;;;;;;;;;;14.00;97.50;;;;;;5054946;28;19971;-70
2021/06/26 08:41:23;;;;;;;;;;;14.10;98.10;;;;;;5054406;28;19932;-71
2021/06/26 08:43:50;;;;;;;;;;;14.10;97.50;;;;;;5054713;28;20007;-71
2021/06/26 08:46:18;;;;;;;;;;;14.10;97.00;;;;;;5055139;28;19956;-70
2021/06/26 08:48:44;;;;;;;;;;;14.10;97.20;;;;;;5054984;28;19908;-70
2021/06/26 08:51:11;;;;;;;;;;;14.10;96.70;;;;;;5054916;28;20007;-70
2021/06/26 08:53:38;;;;;;;;;;;14.00;96.30;;;;;;5054814;28;19940;-70
2021/06/26 08:56:04;;;;;;;;;;;14.00;96.10;;;;;;5054084;28;19909;-69
2021/06/26 08:58:31;;;;;;;;;;;13.90;96.20;;;;;;5054893;28;19923;-69
2021/06/26 09:00:58;;;;;;;;;;;13.90;96.40;;;;;;5054732;28;19909;-70
2021/06/26 09:03:24;;;;;;;;;;;14.00;96.50;;;;;;5054765;28;19913;-70
2021/06/26 09:05:51;;;;;;;;;;;14.00;97.10;;;;;;5054655;28;19912;-70
2021/06/26 09:08:19;;;;;;;;;;;14.00;96.50;;;;;;5054567;28;19908;-69
2021/06/26 09:10:47;;;;;;;;;;;13.90;96.40;;;;;;5054013;28;20275;-70
2021/06/26 09:13:24;;;;;;;;;;;14.00;96.90;;;;;;5054528;28;19962;-68
2021/06/26 09:16:07;;;;;;;;;;;14.00;96.40;;;;;;5054224;28;20029;-69
2021/06/26 09:18:41;;;;;;;;;;;14.00;96.30;;;;;;5054222;28;19967;-70
2021/06/26 09:21:17;;;;;;;;;;;14.00;96.10;;;;;;5054290;28;20282;-69
2021/06/26 09:23:43;;;;;;;;;;;14.00;96.60;;;;;;5053597;28;20355;-72
2021/06/26 09:26:11;;;;;;;;;;;14.00;96.40;;;;;;5054219;28;19908;-69
2021/06/26 09:28:39;;;;;;;;;;;14.00;96.40;;;;;;5054350;28;19916;-70
2021/06/26 09:31:14;;;;;;;;;;;14.00;96.20;;;;;;5054126;28;19908;-69
2021/06/26 09:33:41;;;;;;;;;;;14.00;95.70;;;;;;5053974;28;20372;-70
2021/06/26 09:36:09;;;;;;;;;;;13.90;96.00;;;;;;5052791;28;20423;-70
2021/06/26 09:38:55;;;;;;;;;;;14.00;96.20;;;;;;5052170;28;20355;-69
2021/06/26 09:41:22;;;;;;;;;;;13.90;96.30;;;;;;5053557;28;19912;-70
2021/06/26 09:43:49;;;;;;;;;;;13.90;96.80;;;;;;5053822;28;19908;-69
2021/06/26 09:46:16;;;;;;;;;;;13.80;96.60;;;;;;5053976;28;19916;-70
2021/06/26 09:48:47;;;;;;;;;;;13.70;97.20;;;;;;5053843;28;19913;-70
2021/06/26 09:51:17;;;;;;;;;;;13.70;97.50;;;;;;5053839;28;20279;-70
2021/06/26 09:53:51;;;;;;;;;;;13.80;97.20;;;;;;5053331;28;20771;-70
2021/06/26 09:56:18;;;;;;;;;;;13.70;97.30;;;;;;5053436;28;19913;-70
2021/06/26 09:58:51;;;;;;;;;;;13.70;97.70;;;;;;5053701;28;19971;-70
2021/06/26 10:01:19;;;;;;;;;;;13.70;97.30;;;;;;5053598;28;20368;-70
2021/06/26 10:03:47;;;;;;;;;;;13.70;97.40;;;;;;5053386;28;19913;-69
2021/06/26 10:06:15;;;;;;;;;;;13.70;97.40;;;;;;5053630;28;19909;-70
2021/06/26 10:08:43;;;;;;;;;;;13.60;97.20;;;;;;5052866;28;19913;-70
2021/06/26 10:11:09;;;;;;;;;;;13.60;97.90;;;;;;5053266;28;19991;-70
2021/06/26 10:13:36;;;;;;;;;;;13.60;97.50;;;;;;5053025;28;19917;-70
2021/06/26 10:16:03;;;;;;;;;;;13.40;98.20;;;;;;5053323;28;20314;-70
2021/06/26 10:18:31;;;;;;;;;;;13.30;98.00;;;;;;5053249;28;20346;-69
2021/06/26 10:20:58;;;;;;;;;;;13.30;98.10;;;;;;5053350;28;19951;-70
2021/06/26 10:23:30;;;;;;;;;;;13.20;99.20;;;;;;5052804;28;19927;-71
2021/06/26 10:25:58;;;;;;;;;;;13.20;98.10;;;;;;5053271;28;20004;-69
2021/06/26 10:28:25;;;;;;;;;;;13.20;98.40;;;;;;5052819;28;19916;-69
2021/06/26 10:31:17;;;;;;;;;;;13.20;98.40;;;;;;5053137;28;19916;-69
2021/06/26 10:33:46;;;;;;;;;;;13.10;98.10;;;;;;5050197;28;19913;-69
2021/06/26 10:36:13;;;;;;;;;;;13.10;98.70;;;;;;5052956;28;19931;-69
2021/06/26 10:38:41;;;;;;;;;;;13.10;98.40;;;;;;5052529;28;19963;-70
2021/06/26 10:41:16;;;;;;;;;;;13.10;98.50;;;;;;5053003;28;19909;-70
2021/06/26 10:43:53;;;;;;;;;;;13.10;99.00;;;;;;5051530;28;19916;-69
2021/06/26 10:46:20;;;;;;;;;;;13.10;98.70;;;;;;5052863;28;19913;-69
2021/06/26 10:49:05;;;;;;;;;;;13.00;99.20;;;;;;5052807;28;19909;-69
2021/06/26 10:51:32;;;;;;;;;;;13.00;99.20;;;;;;5052679;28;20010;-70
2021/06/26 10:54:08;;;;;;;;;;;13.00;99.70;;;;;;5051092;28;19915;-70
2021/06/26 10:56:35;;;;;;;;;;;13.00;99.80;;;;;;5052826;28;19915;-69
2021/06/26 10:59:12;;;;;;;;;;;12.90;99.50;;;;;;5052744;28;19916;-69
2021/06/26 11:01:39;;;;;;;;;;;12.90;99.90;;;;;;5052635;28;19916;-70
2021/06/26 11:04:09;;;;;;;;;;;12.80;99.50;;;;;;5052878;28;19939;-68
2021/06/26 11:06:37;;;;;;;;;;;12.80;99.90;;;;;;5052734;28;19913;-70
2021/06/26 11:09:10;;;;;;;;;;;12.90;99.70;;;;;;5052203;28;20008;-69
2021/06/26 11:11:38;;;;;;;;;;;12.90;99.90;;;;;;5052409;28;20371;-70
2021/06/26 11:14:09;;;;;;;;;;;13.00;99.10;;;;;;5052511;28;20303;-70
2021/06/26 11:16:37;;;;;;;;;;;13.00;99.20;;;;;;5052732;28;19916;-70
2021/06/26 11:19:03;;;;;;;;;;;13.00;99.10;;;;;;5052495;28;19917;-69
2021/06/26 11:21:37;;;;;;;;;;;13.00;99.40;;;;;;5052493;28;20331;-69
2021/06/26 11:24:04;;;;;;;;;;;13.10;98.70;;;;;;5052019;28;19948;-69
2021/06/26 11:26:30;;;;;;;;;;;13.10;98.60;;;;;;5052372;28;20000;-71
2021/06/26 11:28:57;;;;;;;;;;;13.20;98.70;;;;;;5062185;28;19908;-70
2021/06/26 11:31:24;;;;;;;;;;;13.20;98.50;;;;;;5071619;28;19912;-69
2021/06/26 11:33:51;;;;;;;;;;;13.20;98.30;;;;;;5069769;28;20264;-70
2021/06/26 11:36:19;;;;;;;;;;;13.30;98.30;;;;;;5069150;28;19944;-70
2021/06/26 11:38:45;;;;;;;;;;;13.30;98.00;;;;;;5070339;28;19952;-70
2021/06/26 11:41:12;;;;;;;;;;;13.30;98.30;;;;;;5073837;28;19920;-70
2021/06/26 11:43:49;;;;;;;;;;;13.30;98.40;;;;;;5074130;28;19916;-70
2021/06/26 11:46:15;;;;;;;;;;;13.20;98.30;;;;;;5073841;28;20392;-70
2021/06/26 11:48:49;;;;;;;;;;;13.20;98.50;;;;;;5074295;28;19924;-69
2021/06/26 11:51:16;;;;;;;;;;;13.20;98.10;;;;;;5074157;28;19955;-70
2021/06/26 11:53:43;;;;;;;;;;;13.20;98.70;;;;;;5073838;28;19908;-70
2021/06/26 11:56:14;;;;;;;;;;;13.20;98.50;;;;;;5073935;28;19912;-67
2021/06/26 11:58:41;;;;;;;;;;;13.20;98.20;;;;;;5071278;28;19924;-70
2021/06/26 12:01:09;;;;;;;;;;;13.10;99.00;;;;;;5074260;28;19912;-70
2021/06/26 12:03:36;;;;;;;;;;;13.00;98.80;;;;;;5073878;28;20271;-70
2021/06/26 12:06:06;;;;;;;;;;;12.90;99.30;;;;;;5073964;28;19951;-70
2021/06/26 12:08:46;;;;;;;;;;;12.80;99.90;;;;;;5074054;28;19916;-69
2021/06/26 12:11:13;;;;;;;;;;;12.70;99.90;;;;;;5073418;28;20278;-71
2021/06/26 12:13:43;;;;;;;;;;;12.70;99.90;;;;;;5073347;28;19931;-71
2021/06/26 12:16:18;;;;;;;;;;;12.70;99.90;;;;;;5073799;28;19966;-70
2021/06/26 12:18:48;;;;;;;;;;;12.60;99.90;;;;;;5073732;28;20011;-70
2021/06/26 12:21:15;;;;;;;;;;;12.70;99.90;;;;;;5074131;28;19908;-70
2021/06/26 12:23:48;;;;;;;;;;;12.60;99.90;;;;;;5073184;28;20375;-70
2021/06/26 12:26:25;;;;;;;;;;;12.70;99.90;;;;;;5073210;28;19909;-70
2021/06/26 12:28:52;;;;;;;;;;;12.70;99.90;;;;;;5073784;28;19951;-70
2021/06/26 12:31:19;;;;;;;;;;;12.80;99.90;;;;;;5073676;28;19913;-71
2021/06/26 12:33:47;;;;;;;;;;;12.80;99.70;;;;;;5073168;28;19915;-69
2021/06/26 12:36:15;;;;;;;;;;;12.90;99.70;;;;;;5073341;28;19947;-71
2021/06/26 12:38:42;;;;;;;;;;;12.90;99.80;;;;;;5072901;28;20317;-70
2021/06/26 12:41:22;;;;;;;;;;;12.90;99.40;;;;;;5073158;28;20549;-70
2021/06/26 12:43:49;;;;;;;;;;;12.90;99.20;;;;;;5072926;28;19912;-71
2021/06/26 12:46:16;;;;;;;;;;;13.00;99.00;;;;;;5073032;28;19908;-70
2021/06/26 12:49:06;;;;;;;;;;;13.00;99.10;;;;;;5072978;28;20007;-69
2021/06/26 12:51:45;;;;;;;;;;;13.00;98.50;;;;;;5071804;28;19916;-70
2021/06/26 12:54:13;;;;;;;;;;;13.10;98.90;;;;;;5072841;28;20018;-70
2021/06/26 12:56:43;;;;;;;;;;;13.00;98.60;;;;;;5072555;28;19912;-70
2021/06/26 12:59:11;;;;;;;;;;;13.00;99.10;;;;;;5072595;28;19969;-70
2021/06/26 13:01:39;;;;;;;;;;;13.00;98.80;;;;;;5072518;28;19909;-69
2021/06/26 13:04:07;;;;;;;;;;;13.00;99.40;;;;;;5072312;28;20371;-70
2021/06/26 13:06:55;;;;;;;;;;;13.00;99.20;;;;;;5072674;28;20007;-68
2021/06/26 13:09:35;;;;;;;;;;;13.00;99.00;;;;;;5072334;28;19909;-67
2021/06/26 13:12:12;;;;;;;;;;;13.00;99.00;;;;;;5072632;28;19936;-67
2021/06/26 13:14:40;;;;;;;;;;;13.00;99.30;;;;;;5072171;28;20030;-65
2021/06/26 13:17:07;;;;;;;;;;;13.00;99.10;;;;;;5072046;28;19912;-66
2021/06/26 13:19:34;;;;;;;;;;;13.00;98.90;;;;;;5071986;28;19923;-68
2021/06/26 13:22:01;;;;;;;;;;;13.10;99.30;;;;;;5072172;28;19959;-66
2021/06/26 13:24:28;;;;;;;;;;;13.00;99.00;;;;;;5072029;28;19966;-68
2021/06/26 13:26:54;;;;;;;;;;;13.10;99.30;;;;;;5072162;28;19948;-67
2021/06/26 13:29:21;;;;;;;;;;;13.00;99.00;;;;;;5072211;28;19915;-67
2021/06/26 13:31:48;;;;;;;;;;;13.00;99.40;;;;;;5071661;28;19915;-66
2021/06/26 13:34:14;;;;;;;;;;;12.90;99.50;;;;;;5072001;28;19955;-66
2021/06/26 13:36:41;;;;;;;;;;;12.80;99.90;;;;;;5072210;28;19908;-68
2021/06/26 13:39:08;;;;;;;;;;;12.80;99.90;;;;;;5071931;28;19923;-66
2021/06/26 13:41:35;;;;;;;;;;;12.70;99.90;;;;;;5071574;28;19935;-66
2021/06/26 13:44:01;;;;;;;;;;;12.70;99.90;;;;;;5071534;28;20003;-65
2021/06/26 13:46:28;;;;;;;;;;;12.70;99.90;;;;;;5071983;28;20344;-65
2021/06/26 13:48:55;;;;;;;;;;;12.70;99.90;;;;;;5072024;28;19908;-67
2021/06/26 13:51:22;;;;;;;;;;;12.70;99.90;;;;;;5068878;28;19916;-66
2021/06/26 13:53:49;;;;;;;;;;;12.80;99.90;;;;;;5071981;28;19955;-66
2021/06/26 13:56:16;;;;;;;;;;;12.80;99.90;;;;;;5071905;28;19916;-66
2021/06/26 13:58:43;;;;;;;;;;;12.80;99.90;;;;;;5071758;28;20302;-68
2021/06/26 14:01:10;;;;;;;;;;;12.80;99.90;;;;;;5071553;28;20011;-65
2021/06/26 14:03:36;;;;;;;;;;;12.90;99.90;;;;;;5069557;28;19912;-65
2021/06/26 14:06:03;;;;;;;;;;;12.90;99.90;;;;;;5071527;28;19915;-68
2021/06/26 14:08:30;;;;;;;;;;;12.80;99.90;;;;;;5071346;28;20006;-66
2021/06/26 14:10:56;;;;;;;;;;;12.80;99.90;;;;;;5071342;28;19912;-65
2021/06/26 14:13:23;;;;;;;;;;;12.80;99.90;;;;;;5071319;28;19916;-65
2021/06/26 14:15:50;;;;;;;;;;;12.70;99.90;;;;;;5070863;28;19977;-66
2021/06/26 14:18:17;;;;;;;;;;;12.80;99.90;;;;;;5070697;28;19934;-65
2021/06/26 14:20:43;;;;;;;;;;;12.70;99.90;;;;;;5071240;28;19908;-65